首页
METAR-TAF:

METAR-TAF

机场 :

Russell Municipal Airport

拉塞尔, 堪薩斯州, 美国

纬度: 38-52-22N, 经度: 098-48-47W, 海拔: 567米

当前天气观测

该预报发布于42分钟前的08:53 UTC
风速8节,风向
温度 -1°C
湿度 74%
气压 1023 hPa
能見度: 16.1公里
阴天层高于1500英尺

METAR: KRSL 220853Z AUTO 36008KT 10SM OVC015 M01/M05 A3020 RMK AO2 SLP245 T10111050 58002

时间: 03:35 (09:35 UTC)

预报

该预报发布于3小时和54分钟前的05:41 UTC
预报有效从22日的 06点(UTC)到 23日的 06点(UTC)
风速11节,风向
能見度: 10公里
散云层高于1800英尺
阴天层高于3500英尺
短暂存在
从 22日的 08点(UTC)到 22日的 12点(UTC)
能見度: 8.0公里
多云层高于1800英尺
小雪
从 22日的 1200点(UTC)
风速9节,风向
能見度: 4.8公里
阴天层高于1800英尺
小雪
从 22日的 2200点(UTC)
风速4节,风向多变
能見度: 10公里
阴天层高于2000英尺

TAF: KRSL 220541Z 2206/2306 01011KT P6SM SCT018 OVC035 TEMPO 2208/2212 5SM -SN BKN018 FM221200 01009KT 3SM -SN OVC018 FM222200 VRB04KT P6SM OVC020

超过4000个机场的气象观测和天气预报(METAR&TAF报告)。

可查询的气象台以黄色和红色小点在地图上表示。

将鼠标移到小点上方,可查看气象台名称。

然后点击查看天气观测和预报。

如需切换地图:点击带黑十字的绿色按钮放大地图;点击带横线的绿色按钮缩小地图;或者点击绿色箭头查看邻近地区的地图。


METAR-TAF: